• Join FlightAware (Why Join?)
  • Login
  • US Flag 
10:27AM EDT


 

Airport Tracker/Info


-or-


 

Live Flight TrackerFlight Track Log ✈ CTL22 ✈ 15-Jul-2013 ✈ KAZO - KBKL

Flight Track Log - Related Links

Times and Time Zones

All times are in EDT time to prevent confusion due to time zone crossing. See the CTL22 flight status page for this flight to view local times or setup timezone preferences in your user account.

Time Position Orientation Groundspeed Altitude Reporting Facility
EDT Latitude Longitude Course Direction KTS MPH feet Rate Location/Type
08:19PM 42.1808 -85.4128 113° Southeast 138 159 3,900  Level Chicago Center
08:20PM 42.1647 -85.3658 115° Southeast 138 159 4,600 600 Climbing Chicago Center
08:21PM 42.1456 -85.3189 119° Southeast 141 162 5,200 600 Climbing Chicago Center
08:22PM 42.1745 -85.1959 103° East  Level Estimated
08:22PM 42.1247 -85.2594 115° Southeast 144 166 5,900  Level Chicago Center
08:23PM 42.1645 -85.1367 103° East  Level Estimated
08:23PM 42.1025 -85.2147 124° Southeast 144 166 6,500  Level Chicago Center
08:24PM 42.0817 -85.1683 121° Southeast 144 166 6,900 300 Climbing Chicago Center
08:25PM 42.0636 -85.1150 114° Southeast 152 175 7,200  Climbing Chicago Center
08:26PM 42.0406 -85.0578 118° Southeast 168 193 7,000 -120 Descending Chicago Center
08:27PM 42.0208 -85.0008 115° Southeast 169 194 7,000  Level Chicago Center
08:28PM 41.9978 -84.9436 118° Southeast 171 197 7,000  Level Chicago Center
08:29PM 41.9700 -84.8744 118° Southeast 175 201 7,000  Level Chicago Center
08:30PM 41.9506 -84.8169 114° Southeast 171 197 7,000  Level Chicago Center
08:31PM 41.9336 -84.7556 101° East 173 199 7,000  Level Chicago Center
08:32PM 41.9385 -84.7348 101° East  Level FlightAware Approximate
08:32PM 41.9142 -84.6953 113° Southeast 175 201 7,100  Level Chicago Center
08:33PM 41.8964 -84.6369 112° Southeast 172 198 7,100  Level Chicago Center
08:34PM 41.8783 -84.5783 112° Southeast 170 196 7,100  Level Chicago Center
08:35PM 41.8517 -84.5092 117° Southeast 173 199 7,100  Level Chicago Center
08:36PM 41.8306 -84.4522 116° Southeast 172 198 7,100  Level Chicago Center
08:37PM 41.8089 -84.3953 117° Southeast 172 198 7,100  Level Chicago Center
08:38PM 41.7889 -84.3367 115° Southeast 172 198 7,100  Level Chicago Center
08:39PM 41.7711 -84.2764 112° Southeast 174 200 7,100  Level Chicago Center
08:40PM 41.7583 -84.2172 106° East 170 196 7,100  Level Chicago Center
08:41PM 41.7339 -84.1494 116° Southeast 167 192 7,100  Level Chicago Center
08:43PM 41.7097 -84.0974 122° Southeast  Level FlightAware Approximate
08:50PM 41.5812 -83.7179 92° East  Level FlightAware Approximate
08:51PM 41.5792 -83.6578 93° East  Level FlightAware Approximate
08:52PM 41.5772 -83.5977 93° East  Level FlightAware Approximate
08:53PM 41.5751 -83.5376 93° East  Level FlightAware Approximate
08:54PM 41.5730 -83.4774 93° East  Level FlightAware Approximate
08:55PM 41.5709 -83.4173 93° East  Level FlightAware Approximate
08:56PM 41.5687 -83.3572 93° East  Level FlightAware Approximate
08:57PM 41.5666 -83.2971 93° East  Level FlightAware Approximate
08:58PM 41.5643 -83.2370 93° East  Level FlightAware Approximate
08:58PM 41.6000 -83.1378 93° East 165 190 7,100  Level Cleveland Center
08:59PM 41.5621 -83.1769 93° East  Level FlightAware Approximate
08:59PM 41.5953 -83.0711 95° East 173 199 7,100  Level Cleveland Center
09:00PM 41.5598 -83.1168 93° East  Level FlightAware Approximate
09:00PM 41.5858 -83.0178 103° East 176 203 7,100  Level Cleveland Center
09:01PM 41.5575 -83.0567 93° East  Level FlightAware Approximate
09:01PM 41.5872 -82.9597 88° East 171 197 7,100  Level Cleveland Center
09:02PM 41.5552 -82.9966 93° East  Level FlightAware Approximate
09:02PM 41.5908 -82.8819 86° East 168 193 7,100  Level Cleveland Center
09:03PM 41.5528 -82.9365 93° East  Level FlightAware Approximate
09:03PM 41.5919 -82.8208 89° East 173 199 7,100  Level Cleveland Center
09:04PM 41.5911 -82.7569 91° East 174 200 7,100 -240 Level Cleveland Center
09:05PM 41.5947 -82.6850 86° East 183 211 6,700 -540 Descending Cleveland Center
09:06PM 41.5875 -82.6125 98° East 193 222 6,000 -720 Descending Cleveland Center
09:07PM 41.5847 -82.5319 93° East 194 223 5,300 -660 Descending Cleveland Center
09:08PM 41.5897 -82.4822 82° East 197 227 4,800 -780 Descending Cleveland Center
09:09PM 41.5889 -82.4100 91° East 196 226 4,000 -480 Descending Cleveland Center
09:10PM 41.5858 -82.3489 94° East 182 209 3,900  Descending Cleveland Center
09:11PM 41.5847 -82.2792 91° East 176 203 4,000 -60 Climbing Cleveland Center
09:12PM 41.5881 -82.1989 87° East 156 180 3,800  Descending Cleveland Center
09:13PM 41.5928 -82.1408 84° East 150 173 4,100 -60 Climbing Cleveland Center
09:14PM 41.5958 -82.0853 86° East 169 194 3,700 -480 Descending Cleveland Center
09:15PM 41.5922 -82.0242 94° East 168 193 3,200 -480 Descending Cleveland Center
09:17PM 41.5939 -81.8992 89° East 169 194 2,300 -480 Descending Cleveland Center
09:18PM 41.5881 -81.8519 99° East 154 177 1,800 -480 Descending Cleveland Center
09:19PM 41.5594 -81.7986 126° Southeast 155 178 1,400 -240 Descending Cleveland Center
09:20PM 41.5411 -81.7650 126° Southeast 143 165 1,400 -240 Level Cleveland Center
09:21PM 41.5186 -81.7231 126° Southeast 143 165 1,000 -420 Descending Cleveland Center